Besuchen Sie unsere anderen Wetter Stationen:

Template documentation
and downloads

And another site



Select another period ( hide this area )

Einheiten Zeitraum Custom range Directly to
metrisch Englisch Beide
Tägliche Wöchentliche Monatliche Jährlich
use both date-selectors for a custom range
previous Tag
With this date

WeatherUnderground graphs for this period ( click here ) Loading the graph can take up to a minute!



Warning: Division by zero in /is/htdocs/wp10906056_0YHW7Q9XB7/www/weather28/wuhistory/WU-History4.php on line 817
Tägliche Zusammenfassung für Freitag 14 August 2020
Zeit Temp. ( °C ) Dew pt. ( °C ) Wind ( km/h ) von Windböen ( km/h ) Luftdruck ( hPa ) Humid.( % ) Rainrate ( cm ) Solar ( W/m2 )
Hoch19,3 18,1 13,0 SW ( 196/208 ) 8,0 1013,9 94 0,79 0
Durchchnittswerte18,6 17,4 7,2 SW #28/29 4,5 1013,6 93 0,60 NAN #0/29
Wenig18,3 16,9 4,0   3,0 1013,1 91 -  
Tägliche Tabular details for Freitag 14 August 2020
Zeit Temp. ( °C ) Dew pt. ( °C ) Wind ( km/h ) von Windböen ( km/h ) Luftdruck ( hPa ) Humid.( % ) Rainrate ( cm ) Solar ( W/m2 )
00:04 18,7 17,4 6,0 SW 4,0 1013,8 92 - -
00:09 18,7 17,4 7,0 SW 4,0 1013,8 92 - -
00:14 18,7 17,5 6,0 SW 4,0 1013,8 93 - -
00:19 18,6 17,4 7,0 SW 5,0 1013,9 93 - -
00:24 18,4 17,3 7,0 SW 5,0 1013,9 93 - -
00:29 18,5 17,2 7,0 SW 6,0 1013,8 92 0,20 -
00:34 18,6 17,2 7,0 SW 5,0 1013,8 92 0,20 -
00:39 18,7 17,2 8,0 SW 5,0 1013,7 91 0,20 -
00:44 18,7 17,2 8,0 SW 6,0 1013,8 91 0,20 -
00:49 18,6 17,1 8,0 SW 7,0 1013,8 91 0,20 -
00:54 18,5 17,0 8,0 SW 7,0 1013,7 91 0,20 -
00:59 18,4 16,9 8,0 SW 4,0 1013,7 91 0,20 -
01:04 18,4 17,1 6,0 SW 4,0 1013,7 92 0,20 -
01:09 18,4 17,1 7,0 SW 4,0 1013,7 92 0,20 -
01:14 18,4 17,1 7,0 SW 4,0 1013,6 92 0,20 -
01:19 18,4 17,1 6,0 SW 4,0 1013,6 92 0,20 -
01:24 18,3 17,2 6,0 SW 3,0 1013,6 93 0,20 -
01:29 18,3 17,1 6,0 SW 3,0 1013,6 93 0,20 -
01:34 18,4 17,2 7,0 SW 4,0 1013,5 93 0,20 -
01:39 18,4 17,2 4,0 SW 3,0 1013,5 93 0,20 -
01:44 18,4 17,4 4,0 SW 3,0 1013,5 94 0,20 -
01:49 18,5 17,5 6,0 SW 3,0 1013,5 94 0,20 -
01:54 18,6 17,6 5,0 SW 3,0 1013,4 94 0,20 -
01:59 18,5 17,5 6,0 SW 3,0 1013,4 94 0,41 -
02:04 18,6 17,6 6,0 SW 3,0 1013,3 94 0,41 -
02:09 18,7 17,7 7,0 SW 5,0 1013,3 94 0,41 -
02:14 18,9 17,9 12,0 SSW 5,0 1013,3 94 0,61 -
02:19 19,2 18,1 13,0 SW 7,0 1013,2 94 0,61 -
02:24 19,3 18,1 13,0 SW 8,0 1013,1 93 0,79 -
Tägliche Zusammenfassung für Freitag 14 August 2020
Zeit Temp. ( °C ) Dew pt. ( °C ) Wind ( km/h ) von Windböen ( km/h ) Luftdruck ( hPa ) Humid.( % ) Rainrate ( cm ) Solar ( W/m2 )
Hoch19,3 18,1 13,0 SW ( 196/208 ) 8,0 1013,9 94 0,79 0
Durchchnittswerte18,6 17,4 7,2 SW #28/29 4,5 1013,6 93 0,60 NAN #0/29
Wenig18,3 16,9 4,0   3,0 1013,1 91 -  
Tägliche Tabular details for Freitag 14 August 2020
Zeit Temp. ( °C ) Dew pt. ( °C ) Wind ( km/h ) von Windböen ( km/h ) Luftdruck ( hPa ) Humid.( % ) Rainrate ( cm ) Solar ( W/m2 )
00:04 18,7 17,4 6,0 SW 4,0 1013,8 92 - -
00:09 18,7 17,4 7,0 SW 4,0 1013,8 92 - -
00:14 18,7 17,5 6,0 SW 4,0 1013,8 93 - -
00:19 18,6 17,4 7,0 SW 5,0 1013,9 93 - -
00:24 18,4 17,3 7,0 SW 5,0 1013,9 93 - -
00:29 18,5 17,2 7,0 SW 6,0 1013,8 92 0,20 -
00:34 18,6 17,2 7,0 SW 5,0 1013,8 92 0,20 -
00:39 18,7 17,2 8,0 SW 5,0 1013,7 91 0,20 -
00:44 18,7 17,2 8,0 SW 6,0 1013,8 91 0,20 -
00:49 18,6 17,1 8,0 SW 7,0 1013,8 91 0,20 -
00:54 18,5 17,0 8,0 SW 7,0 1013,7 91 0,20 -
00:59 18,4 16,9 8,0 SW 4,0 1013,7 91 0,20 -
01:04 18,4 17,1 6,0 SW 4,0 1013,7 92 0,20 -
01:09 18,4 17,1 7,0 SW 4,0 1013,7 92 0,20 -
01:14 18,4 17,1 7,0 SW 4,0 1013,6 92 0,20 -
01:19 18,4 17,1 6,0 SW 4,0 1013,6 92 0,20 -
01:24 18,3 17,2 6,0 SW 3,0 1013,6 93 0,20 -
01:29 18,3 17,1 6,0 SW 3,0 1013,6 93 0,20 -
01:34 18,4 17,2 7,0 SW 4,0 1013,5 93 0,20 -
01:39 18,4 17,2 4,0 SW 3,0 1013,5 93 0,20 -
01:44 18,4 17,4 4,0 SW 3,0 1013,5 94 0,20 -
01:49 18,5 17,5 6,0 SW 3,0 1013,5 94 0,20 -
01:54 18,6 17,6 5,0 SW 3,0 1013,4 94 0,20 -
01:59 18,5 17,5 6,0 SW 3,0 1013,4 94 0,41 -
02:04 18,6 17,6 6,0 SW 3,0 1013,3 94 0,41 -
02:09 18,7 17,7 7,0 SW 5,0 1013,3 94 0,41 -
02:14 18,9 17,9 12,0 SSW 5,0 1013,3 94 0,61 -
02:19 19,2 18,1 13,0 SW 7,0 1013,2 94 0,61 -
02:24 19,3 18,1 13,0 SW 8,0 1013,1 93 0,79 -

Download your copy of this data-set  here

Our weather-data as stored at Weather Underground. Script entwickelt von Jim McMurry. Angepasst für das Template von Leuven-Template.eu

Sie finden unser Wetter-Infos auch auf:

netzwerkwettercom

European Weather Network

WeatherCloud

Weather Underground

AWEKAS

HAMweather, WeatherForYou, PWS Weather

Von uns verwendete Ausrüstung:

Wetterstation
Davis VP2

Davis VP2